Williams, OR (97544)

1:46 AM PST on February 10, 2016 (GMT -0800)
H^5 Ranch | | Change Station
CLOSE
Current Station
Personal Weather Station
Location: Williams, OR
Elevation: 1490 ft
Nearby Weather Stations

Elev 1490 ft 42.25 °N, 123.28 °W | Updated 2 minutes ago

Partly Cloudy
Partly Cloudy
38.5 °F
Feels Like 38 °F
N
0.0
Wind Variable Wind from SW
Gusts 1.0 mph

Today
High -- | Low -- °F
--% Chance of Precip.
Yesterday
High -- | Low -- °F
Precip. -- in
Pressure 30.18 in
Visibility 10.0 miles
Clouds Clear
Windchill 38 °F
Dew Point 38 °F
Humidity 99%
Rainfall 0.00 in
Snow Depth Not available.
7:16 AM 5:38 PM
Waxing Crescent, 4% visible
METAR KMFR 100853Z AUTO 21005KT 10SM CLR 06/03 A3018 RMK AO2 SLP219 T00610033 50002
Pressure 30.18 in
Visibility 10.0 miles
Clouds Clear
Windchill 38 °F
Dew Point 38 °F
Humidity 99%
Rainfall 0.00 in
Snow Depth Not available.
7:16 AM 5:38 PM
Waxing Crescent, 4% visible
METAR KMFR 100853Z AUTO 21005KT 10SM CLR 06/03 A3018 RMK AO2 SLP219 T00610033 50002

10-Day Weather Forecast

Almanac

Astronomy

Feb. 10, 2016 Rise Set
Actual Time
Civil Twilight
Nautical Twilight
Astronomical Twilight
Moon
Length of Visible Light
Length of Day
Tomorrow will be .
, % of the Moon is Illuminated

Today's Extremes

State Highs State Lows

Community

WunderPhotos

Upload Photos

1,891,826 photos uploaded!

WunderBlog® & News

Nearby

Air Quality

  Air Quality AQ Index Pollutant
Not available.

Snow Depth

Station Depth Elevation

Earthquake Activity

City Distance Mag. Time & Date
Minimum magnitude displayed is 2.5.

Coastal Water Temperatures

Place Temperature

Stations

Nearby Weather Stations

Station Location Temp. Windchill Dew Point Humidity Wind Precip. Elev Updated Type
                   

Watches & Warnings

There are currently no watches in effect.